Time;durP1;ratioP1;P1;durP2;ratioP2;P2;SDS_P1;SDS_P2;PMS_P1;PMS_P2;Temp;Humidity;BMP_temperature;BMP_pressure;BME280_temperature;BME280_humidity;BME280_pressure;Samples;Min_cycle;Max_cycle;Signal;HPM_P1;HPM_P2
2023/10/21 00:00:51;;;;;;;28.80;15.40;;;10.40;99.90;;;;;;5071128;28;20074;-70
2023/10/21 00:03:19;;;;;;;28.15;15.75;;;10.30;99.90;;;;;;5064431;28;20135;-69
2023/10/21 00:05:45;;;;;;;28.02;15.63;;;10.40;99.90;;;;;;5079720;28;20036;-69
2023/10/21 00:08:10;;;;;;;31.58;17.15;;;10.40;99.90;;;;;;5075464;28;20402;-70
2023/10/21 00:10:36;;;;;;;37.00;17.70;;;10.40;99.90;;;;;;5069617;28;20029;-69
2023/10/21 00:13:04;;;;;;;32.22;15.70;;;10.40;99.90;;;;;;5071758;28;20382;-69
2023/10/21 00:15:34;;;;;;;35.45;16.25;;;10.40;99.90;;;;;;5071933;28;20029;-70
2023/10/21 00:18:01;;;;;;;33.13;17.48;;;10.40;99.90;;;;;;5072429;28;20108;-69
2023/10/21 00:20:27;;;;;;;36.50;17.70;;;10.30;99.90;;;;;;5070257;28;20036;-69
2023/10/21 00:22:55;;;;;;;42.95;17.45;;;10.30;99.90;;;;;;5075695;28;20025;-70
2023/10/21 00:25:21;;;;;;;;;;;10.30;99.90;;;;;;5069884;28;20040;-69
2023/10/21 00:27:46;;;;;;;33.88;16.88;;;10.30;99.90;;;;;;5079135;28;20286;-69
2023/10/21 00:30:14;;;;;;;45.22;16.88;;;10.30;99.90;;;;;;5076485;28;20024;-70
2023/10/21 00:32:40;;;;;;;;;;;10.20;99.90;;;;;;5073098;28;20075;-69
2023/10/21 00:35:05;;;;;;;38.20;17.33;;;10.30;99.90;;;;;;5076095;28;20484;-69
2023/10/21 00:37:31;;;;;;;48.50;20.63;;;10.30;99.90;;;;;;5072625;28;20032;-69
2023/10/21 00:39:57;;;;;;;39.35;17.73;;;10.20;99.90;;;;;;5081878;28;20510;-70
2023/10/21 00:42:22;;;;;;;43.10;17.55;;;10.20;99.90;;;;;;5062552;28;20432;-69
2023/10/21 00:44:48;;;;;;;36.45;17.67;;;10.20;99.90;;;;;;5069712;28;20037;-70
2023/10/21 00:47:15;;;;;;;41.45;18.00;;;10.20;99.90;;;;;;5069228;28;20059;-69
2023/10/21 00:49:42;;;;;;;43.90;18.40;;;10.20;99.90;;;;;;5073971;28;20513;-69
2023/10/21 00:52:07;;;;;;;46.38;19.35;;;10.20;99.90;;;;;;5068280;28;20029;-69
2023/10/21 00:54:38;;;;;;;28.63;16.92;;;10.20;99.90;;;;;;5068612;28;20039;-69
2023/10/21 00:57:03;;;;;;;35.00;18.05;;;10.30;99.90;;;;;;5067129;28;20039;-69
2023/10/21 00:59:29;;;;;;;37.92;19.35;;;10.30;99.90;;;;;;5071792;28;20036;-69
2023/10/21 01:01:57;;;;;;;39.45;17.48;;;10.40;99.90;;;;;;5063900;28;20031;-70
2023/10/21 01:04:24;;;;;;;52.88;19.13;;;10.30;99.90;;;;;;5069791;28;20028;-69
2023/10/21 01:06:50;;;;;;;48.40;17.67;;;10.30;99.90;;;;;;5068091;28;20033;-69
2023/10/21 01:09:18;;;;;;;39.63;18.38;;;10.30;99.90;;;;;;5070593;28;20276;-70
2023/10/21 01:11:48;;;;;;;38.83;18.88;;;10.30;99.90;;;;;;5071074;28;20089;-69
2023/10/21 01:14:14;;;;;;;40.03;18.05;;;10.40;99.90;;;;;;5072338;28;20108;-69
2023/10/21 01:16:39;;;;;;;39.30;17.98;;;10.30;99.90;;;;;;5067597;28;20273;-70
2023/10/21 01:19:06;;;;;;;49.88;17.63;;;10.30;99.90;;;;;;5075524;28;20028;-69
2023/10/21 01:21:32;;;;;;;42.00;18.75;;;10.30;99.90;;;;;;5074119;28;20494;-69
2023/10/21 01:23:58;;;;;;;40.20;19.33;;;10.40;99.90;;;;;;5069478;28;20035;-70
2023/10/21 01:26:25;;;;;;;43.13;17.25;;;10.30;99.90;;;;;;5067109;28;20070;-70
2023/10/21 01:28:51;;;;;;;36.22;16.70;;;10.30;99.90;;;;;;5068237;28;20035;-70
2023/10/21 01:31:17;;;;;;;35.47;17.92;;;10.30;99.90;;;;;;5065915;28;20029;-69
2023/10/21 01:33:44;;;;;;;38.25;17.75;;;10.30;99.90;;;;;;5064174;28;20020;-69
2023/10/21 01:36:15;;;;;;;48.58;17.83;;;10.30;99.90;;;;;;5067463;28;20119;-69
2023/10/21 01:38:43;;;;;;;43.08;17.65;;;10.30;99.90;;;;;;5069098;28;20034;-69
2023/10/21 01:41:10;;;;;;;;;;;10.30;99.90;;;;;;5068054;28;20036;-69
2023/10/21 01:43:35;;;;;;;43.47;16.73;;;10.30;99.90;;;;;;5066694;28;19912;-69
2023/10/21 01:46:05;;;;;;;36.42;17.42;;;10.30;99.90;;;;;;5076138;28;20028;-70
2023/10/21 01:48:32;;;;;;;33.13;17.55;;;10.30;99.90;;;;;;5067965;28;20397;-70
2023/10/21 01:51:00;;;;;;;46.28;17.90;;;10.40;99.90;;;;;;5066290;28;20028;-70
2023/10/21 01:53:26;;;;;;;;;;;10.30;99.90;;;;;;5062294;28;20028;-69
2023/10/21 01:55:59;;;;;;;34.33;17.02;;;10.20;99.90;;;;;;5077065;28;19912;-69
2023/10/21 01:58:25;;;;;;;29.38;16.52;;;10.20;99.90;;;;;;5066461;28;20020;-70
2023/10/21 02:00:50;;;;;;;30.20;17.17;;;10.30;99.90;;;;;;5072307;28;20095;-69
2023/10/21 02:03:16;;;;;;;31.75;17.02;;;10.40;99.90;;;;;;5073563;28;20111;-70
2023/10/21 02:05:42;;;;;;;32.20;15.02;;;10.40;99.90;;;;;;5081183;28;20032;-70
2023/10/21 02:08:07;;;;;;;42.53;16.92;;;10.30;99.90;;;;;;5074427;28;20031;-69
2023/10/21 02:10:33;;;;;;;33.40;16.80;;;10.40;99.90;;;;;;5072454;28;20111;-69
2023/10/21 02:12:58;;;;;;;39.40;17.15;;;10.40;99.90;;;;;;5068958;28;20036;-70
2023/10/21 02:15:24;;;;;;;28.10;16.13;;;10.30;99.90;;;;;;5076761;28;20090;-69
2023/10/21 02:17:52;;;;;;;29.33;16.77;;;10.30;99.90;;;;;;5066813;28;20027;-69
2023/10/21 02:20:17;;;;;;;37.30;17.25;;;10.30;99.90;;;;;;5069073;28;20040;-70
2023/10/21 02:22:45;;;;;;;30.17;16.67;;;10.30;99.90;;;;;;5067819;28;20032;-70
2023/10/21 02:25:12;;;;;;;34.05;16.63;;;10.40;99.90;;;;;;5072222;28;20058;-70
2023/10/21 02:27:39;;;;;;;29.77;16.52;;;10.40;99.90;;;;;;5068315;28;20383;-69
2023/10/21 02:30:12;;;;;;;30.88;17.13;;;10.30;99.90;;;;;;5067306;28;20190;-69
2023/10/21 02:32:41;;;;;;;34.08;16.20;;;10.40;99.90;;;;;;5078031;28;20068;-70
2023/10/21 02:35:09;;;;;;;39.63;18.13;;;10.40;99.90;;;;;;5080060;28;20031;-69
2023/10/21 02:37:37;;;;;;;34.67;16.67;;;10.40;99.90;;;;;;5062852;28;20222;-69
2023/10/21 02:40:03;;;;;;;28.92;16.17;;;10.40;99.90;;;;;;5068457;28;20036;-69
2023/10/21 02:42:31;;;;;;;38.47;17.15;;;10.50;99.90;;;;;;5074833;28;20037;-70
2023/10/21 02:44:57;;;;;;;31.95;16.15;;;10.50;99.90;;;;;;5068329;28;20024;-71
2023/10/21 02:47:23;;;;;;;29.63;16.75;;;10.40;99.90;;;;;;5082121;28;20028;-70
2023/10/21 02:49:53;;;;;;;31.58;16.48;;;10.50;99.90;;;;;;5074550;28;20028;-70
2023/10/21 02:52:18;;;;;;;28.83;16.25;;;10.50;99.90;;;;;;5071996;28;20033;-70
2023/10/21 02:54:44;;;;;;;35.30;16.52;;;10.50;99.90;;;;;;5071948;28;20025;-70
2023/10/21 02:57:10;;;;;;;30.67;17.52;;;10.50;99.90;;;;;;5075621;28;20393;-70
2023/10/21 02:59:35;;;;;;;30.70;17.02;;;10.50;99.90;;;;;;5069647;28;20017;-70
2023/10/21 03:02:01;;;;;;;31.70;15.88;;;10.50;99.90;;;;;;5073931;28;20026;-70
2023/10/21 03:04:29;;;;;;;29.42;16.42;;;10.50;99.90;;;;;;5072246;28;20024;-70
2023/10/21 03:06:54;;;;;;;27.60;15.88;;;10.60;99.90;;;;;;5077344;28;20028;-70
2023/10/21 03:09:20;;;;;;;34.55;16.73;;;10.60;99.90;;;;;;5075562;28;20050;-70
2023/10/21 03:11:49;;;;;;;29.58;15.82;;;10.60;99.90;;;;;;5074880;28;20031;-70
2023/10/21 03:14:17;;;;;;;27.85;15.73;;;10.60;99.90;;;;;;5077438;28;20033;-71
2023/10/21 03:16:43;;;;;;;;;;;10.60;99.90;;;;;;5076923;28;20025;-70
2023/10/21 03:19:09;;;;;;;36.50;17.20;;;10.60;99.90;;;;;;5077107;28;19919;-70
2023/10/21 03:21:35;;;;;;;29.10;15.55;;;10.60;99.90;;;;;;5080850;28;20020;-70
2023/10/21 03:24:01;;;;;;;29.90;16.92;;;10.60;99.90;;;;;;5074648;28;20470;-70
2023/10/21 03:26:26;;;;;;;32.17;17.60;;;10.50;99.90;;;;;;5077278;28;20040;-70
2023/10/21 03:28:54;;;;;;;29.02;17.25;;;10.50;99.90;;;;;;5071044;28;20028;-71
2023/10/21 03:31:23;;;;;;;29.42;17.20;;;10.50;99.90;;;;;;5078808;28;20051;-70
2023/10/21 03:33:49;;;;;;;30.75;17.27;;;10.50;99.90;;;;;;5071789;28;20119;-70
2023/10/21 03:36:14;;;;;;;31.40;17.70;;;10.50;99.90;;;;;;5073178;28;20111;-70
2023/10/21 03:38:42;;;;;;;32.90;18.40;;;10.50;99.90;;;;;;5069793;28;20028;-70
2023/10/21 03:41:11;;;;;;;34.38;19.42;;;10.50;99.90;;;;;;5069707;28;20044;-70
2023/10/21 03:43:39;;;;;;;40.20;18.73;;;10.50;99.90;;;;;;5071862;28;20491;-70
2023/10/21 03:46:06;;;;;;;;;;;10.50;99.90;;;;;;5070424;28;20025;-70
2023/10/21 03:48:33;;;;;;;31.70;16.75;;;10.50;99.90;;;;;;5071109;28;19916;-70
2023/10/21 03:51:04;;;;;;;27.92;15.93;;;10.40;99.90;;;;;;5065729;28;20032;-70
2023/10/21 03:53:31;;;;;;;29.40;15.93;;;10.40;99.90;;;;;;5074017;28;20028;-70
2023/10/21 03:55:57;;;;;;;29.08;15.98;;;10.50;99.90;;;;;;5066226;28;20029;-70
2023/10/21 03:58:24;;;;;;;27.75;15.88;;;10.50;99.90;;;;;;5071017;28;20035;-70
2023/10/21 04:00:57;;;;;;;27.50;15.85;;;10.50;99.90;;;;;;5069726;28;20021;-70
2023/10/21 04:03:23;;;;;;;27.95;15.52;;;10.50;99.90;;;;;;5070337;28;20051;-70
2023/10/21 04:05:50;;;;;;;27.80;16.77;;;10.50;99.90;;;;;;5075094;28;20397;-71
2023/10/21 04:08:18;;;;;;;28.77;16.13;;;10.50;99.90;;;;;;5072168;28;20669;-71
2023/10/21 04:10:43;;;;;;;26.83;15.18;;;10.50;99.90;;;;;;5072061;28;20111;-71
2023/10/21 04:13:09;;;;;;;24.13;14.40;;;10.60;99.90;;;;;;5075058;28;20104;-71
2023/10/21 04:15:41;;;;;;;22.42;14.10;;;10.60;99.90;;;;;;5072599;28;20028;-71
2023/10/21 04:18:09;;;;;;;29.15;14.35;;;10.60;99.90;;;;;;5068251;28;20060;-70
2023/10/21 04:20:35;;;;;;;;;;;10.70;99.90;;;;;;5073599;28;20032;-71
2023/10/21 04:23:01;;;;;;;24.17;14.35;;;10.70;99.90;;;;;;5073164;28;19904;-70
2023/10/21 04:25:29;;;;;;;22.23;13.63;;;10.70;99.90;;;;;;5078682;28;20031;-70
2023/10/21 04:27:56;;;;;;;24.58;13.60;;;10.80;99.90;;;;;;5077318;28;20024;-71
2023/10/21 04:30:23;;;;;;;24.98;14.70;;;10.80;99.90;;;;;;5074029;28;20028;-70
2023/10/21 04:32:48;;;;;;;26.27;14.68;;;10.80;99.90;;;;;;5075488;28;20021;-71
2023/10/21 04:35:14;;;;;;;24.98;14.48;;;10.90;99.90;;;;;;5070900;28;20191;-70
2023/10/21 04:37:40;;;;;;;23.60;14.18;;;10.90;99.90;;;;;;5073584;28;20382;-71
2023/10/21 04:40:08;;;;;;;23.25;13.60;;;10.90;99.90;;;;;;5068415;28;20670;-71
2023/10/21 04:42:36;;;;;;;25.08;15.18;;;10.90;99.90;;;;;;5070627;28;20037;-71
2023/10/21 04:45:02;;;;;;;26.20;14.68;;;10.90;99.90;;;;;;5070801;28;20025;-70
2023/10/21 04:47:30;;;;;;;24.00;13.85;;;10.90;99.90;;;;;;5079984;28;20029;-70
2023/10/21 04:49:56;;;;;;;;;;;11.00;99.90;;;;;;5070964;28;20036;-70
2023/10/21 04:52:22;;;;;;;23.85;14.10;;;10.90;99.90;;;;;;5067972;28;19915;-71
2023/10/21 04:54:47;;;;;;;24.48;14.45;;;11.00;99.90;;;;;;5069628;28;20122;-71
2023/10/21 04:57:16;;;;;;;22.15;13.55;;;11.00;99.90;;;;;;5071423;28;20398;-70
2023/10/21 04:59:42;;;;;;;20.95;13.68;;;11.00;99.90;;;;;;5067937;28;20114;-71
2023/10/21 05:02:08;;;;;;;23.98;14.27;;;11.00;99.90;;;;;;5065089;28;20056;-71
2023/10/21 05:04:36;;;;;;;22.58;13.88;;;11.00;99.90;;;;;;5067990;28;20021;-70
2023/10/21 05:07:05;;;;;;;23.75;14.27;;;11.10;99.90;;;;;;5068592;28;20032;-71
2023/10/21 05:09:33;;;;;;;21.58;13.25;;;11.10;99.90;;;;;;5070898;28;20024;-70
2023/10/21 05:12:04;;;;;;;;;;;11.10;99.90;;;;;;5069661;28;20037;-70
2023/10/21 05:14:32;;;;;;;20.02;12.95;;;11.00;99.90;;;;;;5065270;28;19915;-70
2023/10/21 05:16:57;;;;;;;22.67;14.25;;;11.00;99.90;;;;;;5072633;28;20040;-71
2023/10/21 05:19:25;;;;;;;22.58;14.18;;;11.00;99.90;;;;;;5074953;28;20031;-71
2023/10/21 05:21:53;;;;;;;25.05;14.98;;;11.00;99.90;;;;;;5067280;28;20028;-71
2023/10/21 05:24:19;;;;;;;;;;;11.00;99.90;;;;;;5067084;28;20109;-71
2023/10/21 05:26:45;;;;;;;24.67;13.45;;;11.00;99.90;;;;;;5070488;28;20010;-70
2023/10/21 05:29:13;;;;;;;26.27;13.23;;;11.00;99.90;;;;;;5065381;28;20076;-70
2023/10/21 05:31:38;;;;;;;24.85;14.50;;;11.00;99.90;;;;;;5073573;28;20240;-71
2023/10/21 05:34:04;;;;;;;23.58;13.60;;;11.00;99.90;;;;;;5061350;28;20036;-71
2023/10/21 05:36:30;;;;;;;21.45;12.90;;;11.10;99.90;;;;;;5076243;28;20028;-71
2023/10/21 05:38:55;;;;;;;22.48;13.32;;;11.10;99.90;;;;;;5065502;28;20031;-71
2023/10/21 05:41:23;;;;;;;24.23;14.10;;;11.10;99.90;;;;;;5076622;28;20092;-71
2023/10/21 05:43:51;;;;;;;;;;;11.10;99.90;;;;;;5066767;28;20029;-70
2023/10/21 05:46:19;;;;;;;;;;;11.10;99.90;;;;;;5071448;28;19920;-71
2023/10/21 05:48:45;;;;;;;;;;;11.10;99.90;;;;;;5074237;28;20305;-71
2023/10/21 05:51:10;;;;;;;23.95;12.73;;;11.10;99.90;;;;;;5065700;28;19958;-71
2023/10/21 05:53:36;;;;;;;23.55;14.68;;;11.10;99.90;;;;;;5069139;28;20038;-71
2023/10/21 05:56:02;;;;;;;22.40;13.80;;;11.10;99.90;;;;;;5068774;28;20070;-70
2023/10/21 05:58:28;;;;;;;22.27;13.77;;;11.10;99.90;;;;;;5068187;28;20032;-71
2023/10/21 06:00:53;;;;;;;23.55;14.13;;;11.10;99.90;;;;;;5065353;28;20031;-71
2023/10/21 06:03:19;;;;;;;26.20;14.73;;;11.20;99.90;;;;;;5072796;28;20023;-70
2023/10/21 06:05:45;;;;;;;27.50;14.15;;;11.20;99.90;;;;;;5073964;28;20035;-70
2023/10/21 06:08:13;;;;;;;23.67;13.60;;;11.20;99.90;;;;;;5068938;28;20068;-70
2023/10/21 06:10:44;;;;;;;28.02;13.98;;;11.30;99.90;;;;;;5066432;28;20032;-71
2023/10/21 06:13:09;;;;;;;24.23;13.73;;;11.30;99.90;;;;;;5066708;28;20050;-70
2023/10/21 06:15:35;;;;;;;26.77;16.45;;;11.30;99.90;;;;;;5065796;28;20482;-71
2023/10/21 06:18:01;;;;;;;24.15;14.88;;;11.30;99.90;;;;;;5080231;28;20478;-71
2023/10/21 06:20:29;;;;;;;27.80;14.68;;;11.30;99.90;;;;;;5061013;28;20051;-71
2023/10/21 06:22:54;;;;;;;;;;;11.30;99.90;;;;;;5060492;28;20651;-71
2023/10/21 06:25:20;;;;;;;28.15;15.13;;;11.30;99.90;;;;;;5074846;28;19979;-71
2023/10/21 06:27:48;;;;;;;25.17;14.73;;;11.30;99.90;;;;;;5075008;28;20017;-71
2023/10/21 06:30:16;;;;;;;22.40;13.80;;;11.30;99.90;;;;;;5071369;28;20059;-70
2023/10/21 06:32:41;;;;;;;;;;;11.30;99.90;;;;;;5071947;28;20036;-70
2023/10/21 06:35:07;;;;;;;29.92;16.17;;;11.40;99.90;;;;;;5073512;28;19908;-71
2023/10/21 06:37:35;;;;;;;24.65;14.38;;;11.40;99.90;;;;;;5068556;28;20025;-71
2023/10/21 06:40:00;;;;;;;;;;;11.40;99.90;;;;;;5078000;28;20036;-71
2023/10/21 06:42:26;;;;;;;24.52;14.38;;;11.50;99.90;;;;;;5079075;28;19964;-70
2023/10/21 06:44:52;;;;;;;26.98;14.07;;;11.50;99.90;;;;;;5071400;28;20025;-71
2023/10/21 06:47:17;;;;;;;23.52;14.55;;;11.50;99.90;;;;;;5071888;28;20020;-71
2023/10/21 06:49:45;;;;;;;24.88;15.95;;;11.50;99.90;;;;;;5071665;28;20032;-71
2023/10/21 06:52:10;;;;;;;27.67;14.70;;;11.50;99.90;;;;;;5067520;28;20032;-70
2023/10/21 06:54:36;;;;;;;24.08;14.25;;;11.50;99.90;;;;;;5069790;28;20037;-71
2023/10/21 06:57:02;;;;;;;27.15;14.85;;;11.50;99.90;;;;;;5070628;28;20067;-71
2023/10/21 06:59:27;;;;;;;27.50;15.68;;;11.50;99.90;;;;;;5074513;28;20028;-70
2023/10/21 07:01:55;;;;;;;26.92;15.68;;;11.60;99.90;;;;;;5071175;28;20024;-71
2023/10/21 07:04:23;;;;;;;;;;;11.60;99.90;;;;;;5083185;28;20051;-71
2023/10/21 07:06:51;;;;;;;27.20;15.63;;;11.60;99.90;;;;;;5067465;28;20608;-71
2023/10/21 07:09:16;;;;;;;;;;;11.70;99.90;;;;;;5068795;28;20036;-71
2023/10/21 07:11:42;;;;;;;26.85;15.02;;;11.60;99.90;;;;;;5070518;28;19909;-71
2023/10/21 07:14:08;;;;;;;33.42;15.88;;;11.70;99.90;;;;;;5069976;28;20386;-71
2023/10/21 07:16:40;;;;;;;24.70;15.27;;;11.70;99.90;;;;;;5066920;28;20483;-70
2023/10/21 07:19:05;;;;;;;26.92;15.98;;;11.70;99.90;;;;;;5070420;28;20055;-71
2023/10/21 07:21:31;;;;;;;38.13;16.00;;;11.70;99.90;;;;;;5071333;28;20461;-71
2023/10/21 07:23:56;;;;;;;27.05;15.50;;;11.70;99.90;;;;;;5070304;28;20021;-71
2023/10/21 07:26:22;;;;;;;25.27;16.45;;;11.70;99.90;;;;;;5075380;28;20046;-71
2023/10/21 07:28:50;;;;;;;29.73;15.18;;;11.70;99.90;;;;;;5069418;28;20048;-70
2023/10/21 07:31:15;;;;;;;27.08;16.70;;;11.80;99.90;;;;;;5065157;28;20045;-71
2023/10/21 07:33:41;;;;;;;27.50;16.20;;;11.80;99.90;;;;;;5068524;28;20044;-71
2023/10/21 07:36:07;;;;;;;30.55;16.48;;;11.80;99.90;;;;;;5067360;28;20043;-71
2023/10/21 07:38:32;;;;;;;36.00;16.02;;;11.90;99.90;;;;;;5072224;28;20108;-71
2023/10/21 07:40:58;;;;;;;26.90;15.43;;;11.90;99.90;;;;;;5073001;28;20496;-71
2023/10/21 07:43:23;;;;;;;29.23;16.30;;;11.80;99.90;;;;;;5069321;28;20150;-71
2023/10/21 07:45:49;;;;;;;34.40;16.50;;;11.90;99.90;;;;;;5076306;28;20031;-71
2023/10/21 07:48:14;;;;;;;32.45;15.88;;;12.00;99.90;;;;;;5073548;28;20058;-71
2023/10/21 07:50:42;;;;;;;25.60;15.05;;;12.00;99.90;;;;;;5070674;28;20037;-71
2023/10/21 07:53:08;;;;;;;35.22;15.73;;;12.00;99.90;;;;;;5068944;28;20390;-71
2023/10/21 07:55:34;;;;;;;28.80;14.82;;;12.00;99.90;;;;;;5059327;28;20032;-71
2023/10/21 07:58:00;;;;;;;30.17;16.30;;;11.90;99.90;;;;;;5068367;28;20569;-71
2023/10/21 08:00:28;;;;;;;31.90;15.55;;;12.00;99.90;;;;;;5065135;28;20082;-72
2023/10/21 08:02:56;;;;;;;27.30;15.95;;;12.10;99.90;;;;;;5072229;28;20121;-71
2023/10/21 08:05:24;;;;;;;29.52;16.67;;;12.00;99.90;;;;;;5069623;28;20370;-71
2023/10/21 08:07:49;;;;;;;28.77;16.15;;;12.00;99.90;;;;;;5073475;28;20040;-71
2023/10/21 08:10:18;;;;;;;30.65;17.58;;;12.00;99.90;;;;;;5070038;28;20052;-71
2023/10/21 08:12:43;;;;;;;;;;;12.00;99.90;;;;;;5069726;28;20060;-71
2023/10/21 08:15:10;;;;;;;26.35;15.88;;;12.10;99.90;;;;;;5068506;28;20312;-71
2023/10/21 08:17:38;;;;;;;26.63;15.30;;;12.10;99.90;;;;;;5072466;28;20020;-71
2023/10/21 08:20:04;;;;;;;28.38;15.90;;;12.00;99.90;;;;;;5072452;28;20450;-71
2023/10/21 08:22:32;;;;;;;30.25;16.38;;;12.10;99.90;;;;;;5064818;28;20052;-70
2023/10/21 08:25:00;;;;;;;27.87;15.03;;;12.10;99.90;;;;;;5069453;28;20021;-71
2023/10/21 08:27:26;;;;;;;29.77;16.70;;;12.10;99.90;;;;;;5068429;28;20032;-71
2023/10/21 08:29:55;;;;;;;29.38;17.10;;;12.10;99.90;;;;;;5061617;28;20035;-71
2023/10/21 08:32:23;;;;;;;31.45;16.30;;;12.10;99.90;;;;;;5073348;28;20123;-71
2023/10/21 08:34:53;;;;;;;28.65;16.70;;;12.20;99.90;;;;;;5079003;28;20028;-71
2023/10/21 08:37:19;;;;;;;26.83;16.73;;;12.20;99.90;;;;;;5072122;28;20040;-71
2023/10/21 08:39:48;;;;;;;29.60;16.75;;;12.20;99.90;;;;;;5067667;28;20089;-71
2023/10/21 08:42:17;;;;;;;28.15;16.17;;;12.30;99.90;;;;;;5067653;28;20021;-71
2023/10/21 08:44:48;;;;;;;26.98;15.55;;;12.30;99.90;;;;;;5062035;28;20016;-71
2023/10/21 08:47:16;;;;;;;25.25;13.77;;;12.30;99.90;;;;;;5063171;28;20020;-71
2023/10/21 08:49:47;;;;;;;21.13;13.38;;;12.30;99.90;;;;;;5065490;28;20474;-71
2023/10/21 08:52:17;;;;;;;21.02;11.98;;;12.40;99.90;;;;;;5066004;28;20040;-71
2023/10/21 08:54:46;;;;;;;24.00;12.90;;;12.40;99.90;;;;;;5067857;28;20032;-71
2023/10/21 08:57:11;;;;;;;20.48;12.35;;;12.40;99.90;;;;;;5066059;28;20029;-71
2023/10/21 08:59:38;;;;;;;17.63;10.75;;;12.50;99.90;;;;;;5070253;28;20028;-71
2023/10/21 09:02:05;;;;;;;16.67;10.68;;;12.50;99.90;;;;;;5064585;28;20032;-71
2023/10/21 09:04:34;;;;;;;17.67;10.45;;;12.50;99.90;;;;;;5068207;28;20393;-71
2023/10/21 09:07:00;;;;;;;19.65;10.52;;;12.70;99.90;;;;;;5076292;28;20063;-71
2023/10/21 09:09:28;;;;;;;15.82;10.07;;;12.70;99.90;;;;;;5066390;28;20036;-71
2023/10/21 09:12:13;;;;;;;16.75;10.15;;;12.80;99.90;;;;;;5072174;28;20028;-71
2023/10/21 09:15:00;;;;;;;15.23;9.77;;;12.80;99.90;;;;;;5074340;28;20035;-71
2023/10/21 09:17:36;;;;;;;16.67;9.73;;;12.90;99.90;;;;;;5076056;28;20077;-71
2023/10/21 09:20:13;;;;;;;14.75;8.88;;;12.90;99.90;;;;;;5073368;28;20160;-71
2023/10/21 09:22:39;;;;;;;16.90;8.77;;;12.90;99.90;;;;;;5068857;28;20025;-71
2023/10/21 09:25:19;;;;;;;14.02;8.15;;;13.00;99.90;;;;;;5068769;28;20020;-71
2023/10/21 09:27:55;;;;;;;10.43;6.40;;;13.10;99.90;;;;;;5070402;28;20074;-71
2023/10/21 09:30:32;;;;;;;9.75;5.72;;;13.30;99.90;;;;;;5069836;28;20047;-70
2023/10/21 09:33:07;;;;;;;10.40;4.70;;;13.40;99.90;;;;;;5075716;28;20079;-71
2023/10/21 09:35:35;;;;;;;6.60;3.83;;;13.50;99.90;;;;;;5069102;28;20528;-71
2023/10/21 09:38:14;;;;;;;5.70;3.38;;;13.60;99.90;;;;;;5073173;28;20382;-71
2023/10/21 09:40:40;;;;;;;4.07;2.85;;;13.70;99.90;;;;;;5066926;28;20501;-71
2023/10/21 09:43:08;;;;;;;5.30;2.30;;;13.80;99.90;;;;;;5073709;28;20036;-71
2023/10/21 09:45:34;;;;;;;3.72;2.53;;;14.00;99.90;;;;;;5070702;28;20016;-71
2023/10/21 09:48:05;;;;;;;4.55;2.22;;;14.10;99.90;;;;;;5065435;28;20032;-71
2023/10/21 09:50:33;;;;;;;4.07;2.38;;;14.30;99.90;;;;;;5063007;28;20020;-71
2023/10/21 09:53:06;;;;;;;3.17;2.10;;;14.30;99.90;;;;;;5069220;28;20024;-71
2023/10/21 09:55:32;;;;;;;3.00;2.38;;;14.40;99.90;;;;;;5073196;28;20027;-71
2023/10/21 09:58:01;;;;;;;3.47;2.35;;;14.60;99.90;;;;;;5066532;28;20434;-71
2023/10/21 10:00:27;;;;;;;6.90;1.80;;;14.70;99.90;;;;;;5066424;28;20389;-71
2023/10/21 10:02:57;;;;;;;2.28;2.00;;;14.80;99.90;;;;;;5065949;28;20013;-71
2023/10/21 10:05:23;;;;;;;3.53;1.92;;;14.90;99.90;;;;;;5074987;28;20092;-71
2023/10/21 10:07:49;;;;;;;3.90;2.38;;;14.90;99.90;;;;;;5068579;28;20034;-71
2023/10/21 10:10:19;;;;;;;4.10;2.38;;;14.90;99.90;;;;;;5071098;28;20064;-71
2023/10/21 10:13:11;;;;;;;3.33;2.35;;;15.00;99.90;;;;;;5069049;28;20020;-71
2023/10/21 10:15:42;;;;;;;2.35;1.90;;;14.90;99.90;;;;;;5066405;28;20107;-71
2023/10/21 10:18:29;;;;;;;3.25;1.90;;;14.90;99.90;;;;;;5075449;28;20038;-71
2023/10/21 10:20:57;;;;;;;5.00;2.00;;;14.90;99.90;;;;;;5064945;28;20455;-71
2023/10/21 10:23:26;;;;;;;3.05;1.58;;;14.90;99.90;;;;;;5070942;28;20024;-71
2023/10/21 10:25:54;;;;;;;2.55;1.60;;;14.90;99.90;;;;;;5074281;28;20078;-70
2023/10/21 10:28:25;;;;;;;4.43;1.80;;;14.90;99.90;;;;;;5072303;28;20056;-70
2023/10/21 10:30:52;;;;;;;2.70;1.45;;;15.00;99.90;;;;;;5067585;28;20028;-71
2023/10/21 10:33:28;;;;;;;4.78;1.48;;;14.90;99.90;;;;;;5068051;28;20071;-71
2023/10/21 10:35:55;;;;;;;3.05;0.93;;;15.00;99.90;;;;;;5060847;28;20021;-71
2023/10/21 10:38:24;;;;;;;2.55;1.00;;;15.00;99.90;;;;;;5065093;28;20021;-71
2023/10/21 10:41:02;;;;;;;1.73;0.95;;;15.00;99.90;;;;;;5059488;28;20033;-70
2023/10/21 10:43:31;;;;;;;1.23;1.00;;;15.00;99.90;;;;;;5060966;28;20021;-69
2023/10/21 10:45:56;;;;;;;3.03;1.42;;;15.10;99.90;;;;;;5063726;28;20037;-69
2023/10/21 10:48:22;;;;;;;2.28;1.17;;;15.40;99.90;;;;;;5066897;28;20031;-69
2023/10/21 10:50:51;;;;;;;3.85;1.48;;;15.50;99.90;;;;;;5064858;28;20044;-69
2023/10/21 10:53:22;;;;;;;1.95;1.30;;;15.70;99.90;;;;;;5063064;28;20068;-69
2023/10/21 10:55:53;;;;;;;3.13;1.05;;;15.80;99.90;;;;;;5063420;28;20054;-69
2023/10/21 10:58:22;;;;;;;1.88;0.77;;;15.90;99.90;;;;;;5064409;28;20426;-69
2023/10/21 11:00:48;;;;;;;2.33;0.93;;;16.10;99.90;;;;;;5069573;28;20105;-68
2023/10/21 11:03:28;;;;;;;2.22;0.70;;;16.20;99.90;;;;;;5063931;28;20025;-69
2023/10/21 11:05:55;;;;;;;3.15;1.25;;;16.20;99.90;;;;;;5064804;28;20021;-69
2023/10/21 11:08:21;;;;;;;1.45;0.80;;;16.30;99.90;;;;;;5074532;28;20119;-69
2023/10/21 11:10:47;;;;;;;1.42;0.68;;;16.50;99.90;;;;;;5080974;28;20611;-68
2023/10/21 11:13:13;;;;;;;6.93;1.45;;;16.60;99.90;;;;;;5076023;28;20033;-69
2023/10/21 11:15:44;;;;;;;1.17;0.90;;;16.70;99.90;;;;;;5076465;28;20082;-69
2023/10/21 11:18:11;;;;;;;1.60;0.60;;;16.80;99.90;;;;;;5068309;28;20032;-69
2023/10/21 11:20:49;;;;;;;0.73;0.40;;;17.00;99.90;;;;;;5079591;28;20033;-69
2023/10/21 11:23:18;;;;;;;2.15;0.60;;;17.10;99.90;;;;;;5073623;28;20032;-69
2023/10/21 11:25:50;;;;;;;1.30;0.40;;;17.20;99.90;;;;;;5073641;28;20025;-69
2023/10/21 11:28:21;;;;;;;2.70;0.40;;;17.30;99.90;;;;;;5067402;28;20040;-69
2023/10/21 11:30:47;;;;;;;2.95;0.32;;;17.40;99.90;;;;;;5070594;28;20024;-69
2023/10/21 11:33:13;;;;;;;0.47;0.30;;;17.70;99.90;;;;;;5078958;28;20024;-69
2023/10/21 11:35:44;;;;;;;1.58;0.40;;;17.70;99.90;;;;;;5069627;28;20498;-69
2023/10/21 11:38:17;;;;;;;1.40;0.55;;;17.70;99.90;;;;;;5075234;28;20016;-69
2023/10/21 11:40:46;;;;;;;0.40;0.30;;;17.60;99.90;;;;;;5070531;28;20020;-69
2023/10/21 11:43:16;;;;;;;0.20;0.20;;;17.40;99.90;;;;;;5065121;28;20029;-69
2023/10/21 11:45:46;;;;;;;2.90;0.40;;;17.30;99.90;;;;;;5063698;28;20021;-69
2023/10/21 11:48:15;;;;;;;1.50;0.75;;;17.20;99.90;;;;;;5073954;28;20028;-69
2023/10/21 11:50:45;;;;;;;0.93;0.30;;;17.10;99.90;;;;;;5066131;28;20463;-70
2023/10/21 11:53:15;;;;;;;1.92;0.50;;;16.90;99.90;;;;;;5066010;28;20024;-69
2023/10/21 12:16:36;;;;;;;1.85;0.50;;;16.40;99.90;;;;;;5072928;28;20020;-69
2023/10/21 12:40:37;;;;;;;0.20;0.20;;;16.50;99.90;;;;;;5083327;28;20483;-69
2023/10/21 12:45:49;;;;;;;0.20;0.20;;;16.60;99.90;;;;;;5084478;28;20052;-69
2023/10/21 12:48:21;;;;;;;0.10;0.10;;;16.70;99.90;;;;;;5069902;28;20821;-68
2023/10/21 12:50:51;;;;;;;0.55;0.20;;;17.00;99.90;;;;;;5080558;28;20089;-68
2023/10/21 12:53:19;;;;;;;0.35;0.15;;;17.10;99.90;;;;;;5073132;28;20440;-69
2023/10/21 12:55:45;;;;;;;0.38;0.17;;;17.10;99.90;;;;;;5070548;28;20039;-69
2023/10/21 12:58:10;;;;;;;0.10;0.10;;;17.10;99.90;;;;;;5078615;28;20483;-69
2023/10/21 13:00:36;;;;;;;0.38;0.08;;;17.00;99.90;;;;;;5081940;28;20031;-69
2023/10/21 13:03:10;;;;;;;1.25;0.30;;;16.90;99.90;;;;;;5071338;28;20023;-69
2023/10/21 13:05:39;;;;;;;3.40;0.20;;;16.80;99.90;;;;;;5069668;28;20024;-69
2023/10/21 13:08:09;;;;;;;0.40;0.30;;;16.90;99.90;;;;;;5071033;28;20024;-69
2023/10/21 13:10:38;;;;;;;1.52;0.20;;;17.00;99.90;;;;;;5069554;28;20058;-69
2023/10/21 13:13:08;;;;;;;2.33;0.28;;;17.10;99.90;;;;;;5073685;28;20104;-69
2023/10/21 13:15:36;;;;;;;0.73;0.15;;;17.20;99.90;;;;;;5070017;28;20489;-69
2023/10/21 13:18:05;;;;;;;0.75;0.20;;;17.30;99.90;;;;;;5070159;28;20143;-69
2023/10/21 13:20:34;;;;;;;0.17;0.17;;;17.40;99.90;;;;;;5080279;28;20028;-68
2023/10/21 13:23:00;;;;;;;0.68;0.20;;;17.40;99.90;;;;;;5067804;28;20024;-69
2023/10/21 13:25:28;;;;;;;0.28;0.10;;;17.50;99.90;;;;;;5077743;28;20031;-69